createdAt,value
2024-02-13T00:02:04.113Z,97767.14
2024-02-13T00:04:33.631Z,97761.59
2024-02-13T00:07:01.031Z,97765.34
2024-02-13T00:09:27.983Z,97773.25
2024-02-13T00:12:08.414Z,97773.30
2024-02-13T00:15:02.367Z,97781.77
2024-02-13T00:17:58.655Z,97786.62
2024-02-13T00:20:50.504Z,97786.79
2024-02-13T00:24:01.452Z,97793.61
2024-02-13T00:26:49.300Z,97793.46
2024-02-13T00:29:42.266Z,97796.66
2024-02-13T00:32:33.420Z,97798.65
2024-02-13T00:35:10.048Z,97801.37
2024-02-13T00:37:51.622Z,97801.89
2024-02-13T00:40:23.531Z,97805.30
2024-02-13T00:42:56.264Z,97809.17
2024-02-13T00:45:23.484Z,97814.11
2024-02-13T00:47:51.433Z,97820.59
2024-02-13T00:50:18.827Z,97821.80
2024-02-13T00:52:47.851Z,97819.38
2024-02-13T00:55:14.943Z,97819.63
2024-02-13T00:57:41.752Z,97817.20
2024-02-13T01:00:12.983Z,97819.98
2024-02-13T01:02:41.435Z,97820.19
2024-02-13T01:05:08.962Z,97823.02
2024-02-13T01:07:38.241Z,97822.74
2024-02-13T01:10:08.156Z,97828.65
2024-02-13T01:12:35.637Z,97830.36
2024-02-13T01:15:10.265Z,97829.21
2024-02-13T01:17:52.711Z,97831.87
2024-02-13T01:20:44.704Z,97833.11
2024-02-13T01:23:13.636Z,97836.30
2024-02-13T01:25:42.010Z,97841.05
2024-02-13T01:28:21.926Z,97842.23
2024-02-13T01:30:51.251Z,97843.59
2024-02-13T01:33:39.776Z,97846.97
2024-02-13T01:36:19.138Z,97848.80
2024-02-13T01:39:01.327Z,97848.50
2024-02-13T01:41:31.286Z,97848.11
2024-02-13T01:44:05.696Z,97853.23
2024-02-13T01:46:55.546Z,97856.94
2024-02-13T01:49:22.988Z,97860.73
2024-02-13T01:52:12.041Z,97857.32
2024-02-13T01:54:39.007Z,97857.74
2024-02-13T01:57:15.188Z,97865.06
2024-02-13T02:00:05.036Z,97863.19
2024-02-13T02:02:46.831Z,97864.73
2024-02-13T02:05:15.408Z,97871.77
2024-02-13T02:07:45.139Z,97875.23
2024-02-13T02:10:30.506Z,97881.71
2024-02-13T02:13:06.329Z,97887.65
2024-02-13T02:16:04.545Z,97887.58
2024-02-13T02:18:32.167Z,97889.39
2024-02-13T02:20:59.921Z,97895.03
2024-02-13T02:23:42.254Z,97891.79
2024-02-13T02:26:17.960Z,97893.29
2024-02-13T02:29:07.311Z,97898.66
2024-02-13T02:31:56.322Z,97905.06
2024-02-13T02:34:25.356Z,97904.70
2024-02-13T02:36:54.715Z,97906.85
2024-02-13T02:39:22.455Z,97910.55
2024-02-13T02:42:19.174Z,97909.94
2024-02-13T02:45:31.075Z,97918.45
2024-02-13T02:48:20.197Z,97921.11
2024-02-13T02:51:08.012Z,97923.28
2024-02-13T02:53:41.066Z,97925.55
2024-02-13T02:56:12.454Z,97930.15
2024-02-13T02:58:55.840Z,97933.41
2024-02-13T03:01:24.175Z,97933.98
2024-02-13T03:04:13.264Z,97942.46
2024-02-13T03:06:43.090Z,97948.13
2024-02-13T03:09:10.070Z,97954.27
2024-02-13T03:11:58.178Z,97958.64
2024-02-13T03:14:37.358Z,97967.39
2024-02-13T03:17:13.332Z,97970.92
2024-02-13T03:20:02.489Z,97970.98
2024-02-13T03:23:04.424Z,97974.01
2024-02-13T03:25:48.467Z,97979.64
2024-02-13T03:28:15.361Z,97988.48
2024-02-13T03:30:42.397Z,97994.64
2024-02-13T03:33:11.520Z,98001.03
2024-02-13T03:35:45.287Z,98002.33
2024-02-13T03:38:14.507Z,98006.16
2024-02-13T03:40:44.958Z,98008.52
2024-02-13T03:43:20.451Z,98010.77
2024-02-13T03:45:47.425Z,98009.40
2024-02-13T03:48:14.722Z,98017.89
2024-02-13T03:50:47.412Z,98018.80
2024-02-13T03:53:37.075Z,98021.77
2024-02-13T03:56:28.770Z,98034.38
2024-02-13T03:59:17.545Z,98037.09
2024-02-13T04:02:06.247Z,98041.02
2024-02-13T04:04:58.713Z,98046.16
2024-02-13T04:07:28.465Z,98048.21
2024-02-13T04:10:21.046Z,98047.34
2024-02-13T04:12:51.917Z,98048.84
2024-02-13T04:16:25.021Z,98055.41
2024-02-13T04:19:35.137Z,98065.88
2024-02-13T04:22:27.103Z,98066.33
2024-02-13T04:25:43.545Z,98071.73
2024-02-13T04:28:13.324Z,98079.19
2024-02-13T04:30:57.909Z,98079.88
2024-02-13T04:33:40.143Z,98090.47
2024-02-13T04:36:27.332Z,98094.06
2024-02-13T04:39:28.137Z,98095.11
2024-02-13T04:42:11.636Z,98092.11
2024-02-13T04:45:19.042Z,98099.27
2024-02-13T04:47:59.412Z,98096.22
2024-02-13T04:50:33.947Z,98098.41
2024-02-13T04:53:06.128Z,98102.98
2024-02-13T04:55:47.726Z,98104.63
2024-02-13T04:58:19.414Z,98103.91
2024-02-13T05:00:52.944Z,98106.89
2024-02-13T05:03:41.081Z,98110.13
2024-02-13T05:06:27.441Z,98116.69
2024-02-13T05:08:57.409Z,98121.45
2024-02-13T05:11:29.487Z,98125.71
2024-02-13T05:14:03.997Z,98128.15
2024-02-13T05:16:33.013Z,98132.52
2024-02-13T05:19:22.441Z,98134.61
2024-02-13T05:21:52.125Z,98136.12
2024-02-13T05:24:19.311Z,98145.92
2024-02-13T05:26:51.960Z,98152.62
2024-02-13T05:29:19.371Z,98156.39
2024-02-13T05:31:51.726Z,98158.75
2024-02-13T05:34:35.247Z,98164.14
2024-02-13T05:37:22.656Z,98165.45
2024-02-13T05:40:13.142Z,98165.10
2024-02-13T05:42:44.369Z,98171.60
2024-02-13T05:45:14.985Z,98178.00
2024-02-13T05:47:50.379Z,98184.70
2024-02-13T05:50:26.767Z,98189.29
2024-02-13T05:52:56.246Z,98194.29
2024-02-13T05:55:26.130Z,98202.20
2024-02-13T05:57:52.944Z,98207.38
2024-02-13T06:00:26.130Z,98212.20
2024-02-13T06:02:56.604Z,98214.04
2024-02-13T06:05:24.682Z,98219.92
2024-02-13T06:07:56.132Z,98225.28
2024-02-13T06:10:48.389Z,98227.98
2024-02-13T06:13:41.590Z,98234.83
2024-02-13T06:16:22.578Z,98244.33
2024-02-13T06:18:49.823Z,98245.88
2024-02-13T06:21:22.541Z,98253.56
2024-02-13T06:23:54.391Z,98256.67
2024-02-13T06:27:04.909Z,98256.29
2024-02-13T06:29:47.529Z,98255.80
2024-02-13T06:32:38.217Z,98260.39
2024-02-13T06:35:25.371Z,98263.52
2024-02-13T06:38:25.078Z,98267.11
2024-02-13T06:41:06.984Z,98272.59
2024-02-13T06:43:34.997Z,98277.63
2024-02-13T06:46:07.716Z,98277.84
2024-02-13T06:48:49.015Z,98280.48
2024-02-13T06:51:25.918Z,98280.76
2024-02-13T06:54:03.955Z,98282.40
2024-02-13T06:56:30.792Z,98286.66
2024-02-13T06:58:57.787Z,98289.50
2024-02-13T07:01:25.853Z,98292.27
2024-02-13T07:03:53.026Z,98290.74
2024-02-13T07:06:32.999Z,98292.02
2024-02-13T07:09:08.800Z,98294.89
2024-02-13T07:12:05.487Z,98288.84
2024-02-13T07:14:33.254Z,98289.86
2024-02-13T07:17:25.461Z,98291.91
2024-02-13T07:20:33.009Z,98293.44
2024-02-13T07:23:00.223Z,98291.67
2024-02-13T07:25:27.215Z,98293.55
2024-02-13T07:27:58.923Z,98301.52
2024-02-13T07:30:27.636Z,98308.38
2024-02-13T07:32:56.098Z,98307.42
2024-02-13T07:35:24.570Z,98307.32
2024-02-13T07:37:51.728Z,98311.02
2024-02-13T07:40:23.902Z,98314.45
2024-02-13T07:42:58.475Z,98313.16
2024-02-13T07:45:27.891Z,98311.66
2024-02-13T07:47:55.369Z,98312.48
2024-02-13T07:50:23.336Z,98314.16
2024-02-13T07:52:53.581Z,98318.53
2024-02-13T07:55:21.214Z,98321.59
2024-02-13T07:57:52.141Z,98325.63
2024-02-13T08:00:31.032Z,98330.80
2024-02-13T08:02:58.735Z,98337.02
2024-02-13T08:05:38.487Z,98332.73
2024-02-13T08:08:14.584Z,98333.88
2024-02-13T08:10:53.224Z,98333.01
2024-02-13T08:13:43.597Z,98333.84
2024-02-13T08:16:14.640Z,98332.95
2024-02-13T08:18:51.943Z,98332.83
2024-02-13T08:21:19.541Z,98339.66
2024-02-13T08:23:49.411Z,98348.67
2024-02-13T08:26:25.651Z,98349.43
2024-02-13T08:29:14.395Z,98356.69
2024-02-13T08:31:59.166Z,98368.77
2024-02-13T08:34:28.486Z,98371.48
2024-02-13T08:37:09.902Z,98380.52
2024-02-13T08:40:07.421Z,98386.65
2024-02-13T08:42:54.392Z,98392.64
2024-02-13T08:45:23.140Z,98397.00
2024-02-13T08:47:56.655Z,98402.16
2024-02-13T08:50:54.456Z,98403.35
2024-02-13T08:53:24.922Z,98411.05
2024-02-13T08:56:10.114Z,98408.44
2024-02-13T08:58:58.075Z,98413.70
2024-02-13T09:01:48.964Z,98412.22
2024-02-13T09:04:40.976Z,98417.19
2024-02-13T09:07:08.378Z,98413.00
2024-02-13T09:09:36.077Z,98410.26
2024-02-13T09:12:09.726Z,98410.02
2024-02-13T09:14:45.126Z,98415.14
2024-02-13T09:17:15.550Z,98418.83
2024-02-13T09:19:51.636Z,98421.21
2024-02-13T09:23:00.933Z,98425.48
2024-02-13T09:25:40.399Z,98432.61
2024-02-13T09:28:42.469Z,98437.98
2024-02-13T09:31:46.345Z,98442.91
2024-02-13T09:34:37.156Z,98448.44
2024-02-13T09:37:41.577Z,98443.05
2024-02-13T09:41:10.413Z,98455.52
2024-02-13T09:44:08.440Z,98458.14
2024-02-13T09:47:26.471Z,98462.41
2024-02-13T09:50:16.580Z,98463.20
2024-02-13T09:53:31.002Z,98464.84
2024-02-13T09:56:22.233Z,98465.17
2024-02-13T09:59:26.318Z,98472.76
2024-02-13T10:02:39.853Z,98471.67
2024-02-13T10:05:12.030Z,98475.27
2024-02-13T10:08:32.727Z,98474.23
2024-02-13T10:11:17.730Z,98474.29
2024-02-13T10:13:48.534Z,98472.18
2024-02-13T10:16:30.215Z,98471.52
2024-02-13T10:19:21.454Z,98473.79
2024-02-13T10:21:52.833Z,98477.15
2024-02-13T10:24:31.814Z,98482.02
2024-02-13T10:27:16.066Z,98494.16
2024-02-13T10:29:50.130Z,98494.56
2024-02-13T10:32:58.834Z,98501.84
2024-02-13T10:35:57.552Z,98505.59
2024-02-13T10:38:51.428Z,98511.16
2024-02-13T10:42:01.457Z,98510.54
2024-02-13T10:44:45.214Z,98514.39
2024-02-13T10:47:16.770Z,98512.98
2024-02-13T10:50:01.702Z,98514.48
2024-02-13T10:52:40.197Z,98509.77
2024-02-13T10:56:08.844Z,98520.33
2024-02-13T10:59:22.890Z,98520.54
2024-02-13T11:02:00.657Z,98522.92
2024-02-13T11:04:44.803Z,98531.52
2024-02-13T11:07:44.490Z,98534.08
2024-02-13T11:10:56.213Z,98538.75
2024-02-13T11:13:36.584Z,98529.70
2024-02-13T11:17:03.802Z,98535.00
2024-02-13T11:20:29.689Z,98532.32
2024-02-13T11:23:28.838Z,98531.98
2024-02-13T11:26:21.803Z,98529.05
2024-02-13T11:29:26.911Z,98535.25
2024-02-13T11:32:29.679Z,98538.92
2024-02-13T11:35:59.473Z,98538.76
2024-02-13T11:39:20.978Z,98533.83
2024-02-13T11:41:58.833Z,98537.07
2024-02-13T11:45:01.469Z,98539.96
2024-02-13T11:48:32.542Z,98539.27
2024-02-13T11:51:31.550Z,98540.00
2024-02-13T11:54:22.459Z,98543.76
2024-02-13T11:57:49.160Z,98539.27
2024-02-13T12:00:58.508Z,98541.86
2024-02-13T12:03:28.701Z,98545.42
2024-02-13T12:05:57.766Z,98544.61
2024-02-13T12:08:31.656Z,98549.86
2024-02-13T12:11:20.077Z,98547.86
2024-02-13T12:14:10.567Z,98544.09
2024-02-13T12:17:13.887Z,98547.25
2024-02-13T12:20:26.500Z,98544.73
2024-02-13T12:23:16.208Z,98543.80
2024-02-13T12:25:59.569Z,98546.90
2024-02-13T12:28:57.191Z,98548.05
2024-02-13T12:31:24.692Z,98551.09
2024-02-13T12:34:12.008Z,98552.35
2024-02-13T12:36:39.948Z,98552.20
2024-02-13T12:39:18.268Z,98549.89
2024-02-13T12:41:58.954Z,98555.17
2024-02-13T12:44:26.501Z,98568.50
2024-02-13T12:47:11.995Z,98567.02
2024-02-13T12:49:40.471Z,98572.41
2024-02-13T12:52:23.805Z,98571.45
2024-02-13T12:54:59.928Z,98572.73
2024-02-13T12:57:56.187Z,98566.45
2024-02-13T13:00:47.109Z,98560.09
2024-02-13T13:03:59.349Z,98554.52
2024-02-13T13:06:41.534Z,98554.16
2024-02-13T13:09:44.199Z,98552.00
2024-02-13T13:12:13.752Z,98551.62
2024-02-13T13:14:48.120Z,98554.30
2024-02-13T13:17:17.524Z,98558.02
2024-02-13T13:19:46.120Z,98560.09
2024-02-13T13:22:27.644Z,98564.52
2024-02-13T13:24:58.387Z,98563.88
2024-02-13T13:28:18.858Z,98562.68
2024-02-13T13:31:21.502Z,98560.48
2024-02-13T13:34:22.608Z,98563.83
2024-02-13T13:37:11.895Z,98564.52
2024-02-13T13:40:29.103Z,98565.32
2024-02-13T13:42:56.284Z,98569.73
2024-02-13T13:45:28.623Z,98579.31
2024-02-13T13:48:21.510Z,98579.80
2024-02-13T13:51:14.878Z,98581.20
2024-02-13T13:54:21.933Z,98584.74
2024-02-13T13:56:48.962Z,98584.98
2024-02-13T13:59:31.589Z,98590.45
2024-02-13T14:02:19.464Z,98598.15
2024-02-13T14:04:57.667Z,98593.08
2024-02-13T14:07:24.689Z,98593.04
2024-02-13T14:10:15.121Z,98593.98
2024-02-13T14:12:57.369Z,98593.40
2024-02-13T14:15:58.867Z,98594.20
2024-02-13T14:19:09.139Z,98595.47
2024-02-13T14:22:19.606Z,98590.42
2024-02-13T14:25:23.899Z,98595.51
2024-02-13T14:28:19.693Z,98599.55
2024-02-13T14:31:10.586Z,98599.56
2024-02-13T14:34:29.938Z,98598.93
2024-02-13T14:37:27.130Z,98605.40
2024-02-13T14:40:08.526Z,98614.06
2024-02-13T14:42:46.471Z,98616.17
2024-02-13T14:45:13.818Z,98617.63
2024-02-13T14:48:12.699Z,98618.55
2024-02-13T14:50:44.750Z,98620.79
2024-02-13T14:53:58.459Z,98622.28
2024-02-13T14:56:50.002Z,98623.27
2024-02-13T14:59:21.982Z,98626.16
2024-02-13T15:02:44.167Z,98627.08
2024-02-13T15:06:01.547Z,98626.66
2024-02-13T15:08:28.659Z,98630.71
2024-02-13T15:10:57.637Z,98634.77
2024-02-13T15:13:54.848Z,98641.12
2024-02-13T15:16:22.070Z,98650.06
2024-02-13T15:18:53.594Z,98655.55
2024-02-13T15:21:23.649Z,98656.26
2024-02-13T15:24:13.517Z,98659.77
2024-02-13T15:27:39.984Z,98662.40
2024-02-13T15:30:12.435Z,98661.56
2024-02-13T15:32:48.323Z,98665.08
2024-02-13T15:35:15.489Z,98662.02
2024-02-13T15:48:18.600Z,98675.23
2024-02-13T15:50:47.488Z,98675.65
2024-02-13T15:53:14.343Z,98675.90
2024-02-13T15:55:41.105Z,98676.10
2024-02-13T15:58:08.405Z,98677.18
2024-02-13T16:00:35.227Z,98678.65
2024-02-13T16:03:04.258Z,98682.30
2024-02-13T16:05:31.722Z,98683.84
2024-02-13T16:07:59.690Z,98686.75
2024-02-13T16:10:30.655Z,98690.16
2024-02-13T16:12:57.482Z,98699.36
2024-02-13T16:15:27.733Z,98709.20
2024-02-13T16:17:55.286Z,98710.32
2024-02-13T16:20:23.498Z,98717.83
2024-02-13T16:22:50.444Z,98720.05
2024-02-13T16:25:17.760Z,98724.98
2024-02-13T16:27:51.207Z,98728.14
2024-02-13T16:30:20.018Z,98730.56
2024-02-13T16:32:47.349Z,98727.76
2024-02-13T16:35:16.137Z,98730.23
2024-02-13T16:37:44.876Z,98736.34
2024-02-13T16:40:15.070Z,98737.61
2024-02-13T16:42:42.089Z,98740.23
2024-02-13T16:45:09.849Z,98741.48
2024-02-13T16:47:38.991Z,98744.86
2024-02-13T16:50:16.119Z,98743.48
2024-02-13T16:52:43.595Z,98748.77
2024-02-13T16:55:10.657Z,98750.02
2024-02-13T16:57:42.330Z,98743.83
2024-02-13T17:00:12.082Z,98752.65
2024-02-13T17:02:40.475Z,98756.66
2024-02-13T17:05:13.747Z,98760.66
2024-02-13T17:07:45.057Z,98765.13
2024-02-13T17:10:16.559Z,98773.22
2024-02-13T17:12:43.570Z,98779.45
2024-02-13T17:15:12.993Z,98777.66
2024-02-13T17:17:40.815Z,98783.65
2024-02-13T17:20:09.716Z,98786.39
2024-02-13T17:22:36.500Z,98790.27
2024-02-13T17:25:03.490Z,98792.89
2024-02-13T17:27:30.592Z,98794.84
2024-02-13T17:29:57.774Z,98794.17
2024-02-13T17:32:24.766Z,98795.42
2024-02-13T17:34:51.577Z,98799.93
2024-02-13T17:37:18.409Z,98796.81
2024-02-13T17:39:45.202Z,98797.08
2024-02-13T17:42:12.060Z,98794.94
2024-02-13T17:44:39.479Z,98790.15
2024-02-13T17:47:07.772Z,98791.06
2024-02-13T17:49:35.954Z,98790.19
2024-02-13T17:52:04.087Z,98791.77
2024-02-13T17:54:30.782Z,98789.26
2024-02-13T17:56:57.642Z,98793.45
2024-02-13T17:59:25.225Z,98790.25
2024-02-13T18:01:53.751Z,98791.23
2024-02-13T18:04:22.093Z,98792.18
2024-02-13T18:06:49.555Z,98795.25
2024-02-13T18:09:16.428Z,98797.08
2024-02-13T18:11:43.751Z,98796.98
2024-02-13T18:14:11.453Z,98795.57
2024-02-13T18:16:38.419Z,98794.48
2024-02-13T18:19:07.334Z,98796.88
2024-02-13T18:21:34.405Z,98796.39
2024-02-13T18:24:02.669Z,98799.48
2024-02-13T18:26:30.306Z,98804.77
2024-02-13T18:28:57.208Z,98801.99
2024-02-13T18:31:25.372Z,98805.64
2024-02-13T18:33:52.452Z,98801.94
2024-02-13T18:36:20.153Z,98804.55
2024-02-13T18:38:51.944Z,98811.92
2024-02-13T18:41:19.291Z,98809.68
2024-02-13T18:43:47.485Z,98811.73
2024-02-13T18:46:15.440Z,98814.02
2024-02-13T18:48:43.065Z,98814.83
2024-02-13T18:51:10.841Z,98820.15
2024-02-13T18:53:37.820Z,98819.25
2024-02-13T18:56:04.856Z,98820.55
2024-02-13T18:58:37.211Z,98822.20
2024-02-13T19:01:05.018Z,98818.56
2024-02-13T19:03:32.462Z,98815.28
2024-02-13T19:06:04.853Z,98814.34
2024-02-13T19:08:36.608Z,98817.17
2024-02-13T19:11:03.680Z,98822.80
2024-02-13T19:13:30.376Z,98819.89
2024-02-13T19:15:57.260Z,98820.06
2024-02-13T19:18:24.659Z,98815.20
2024-02-13T19:20:55.653Z,98818.97
2024-02-13T19:23:25.106Z,98814.89
2024-02-13T19:25:52.480Z,98820.10
2024-02-13T19:28:19.581Z,98824.41
2024-02-13T19:30:51.887Z,98823.45
2024-02-13T19:33:18.900Z,98821.02
2024-02-13T19:35:46.606Z,98819.85
2024-02-13T19:38:18.284Z,98820.32
2024-02-13T19:40:46.346Z,98825.38
2024-02-13T19:43:13.262Z,98824.33
2024-02-13T19:45:44.185Z,98829.53
2024-02-13T19:48:11.551Z,98831.48
2024-02-13T19:50:40.106Z,98828.91
2024-02-13T19:53:08.724Z,98833.06
2024-02-13T19:55:37.603Z,98832.77
2024-02-13T19:58:05.163Z,98832.34
2024-02-13T20:00:34.501Z,98832.31
2024-02-13T20:03:03.083Z,98835.95
2024-02-13T20:05:30.152Z,98834.05
2024-02-13T20:07:58.678Z,98832.75
2024-02-13T20:10:25.518Z,98832.11
2024-02-13T20:12:52.372Z,98834.58
2024-02-13T20:15:19.275Z,98836.36
2024-02-13T20:17:46.509Z,98840.58
2024-02-13T20:20:16.699Z,98838.52
2024-02-13T20:22:46.732Z,98836.05
2024-02-13T20:25:14.555Z,98834.79
2024-02-13T20:27:45.385Z,98836.17
2024-02-13T20:30:17.134Z,98838.23
2024-02-13T20:32:49.064Z,98840.32
2024-02-13T20:35:16.421Z,98839.89
2024-02-13T20:37:44.023Z,98838.42
2024-02-13T20:40:13.292Z,98839.66
2024-02-13T20:42:46.994Z,98844.13
2024-02-13T20:45:21.346Z,98845.79
2024-02-13T20:47:51.322Z,98841.45
2024-02-13T20:50:19.128Z,98842.76
2024-02-13T20:52:45.866Z,98844.51
2024-02-13T20:55:14.935Z,98848.10
2024-02-13T20:57:44.368Z,98845.21
2024-02-13T21:00:15.248Z,98843.30
2024-02-13T21:02:43.529Z,98840.48
2024-02-13T21:05:13.854Z,98838.61
2024-02-13T21:07:40.804Z,98836.91
2024-02-13T21:10:10.345Z,98838.27
2024-02-13T21:12:37.269Z,98840.91
2024-02-13T21:15:04.410Z,98839.63
2024-02-13T21:17:32.088Z,98836.70
2024-02-13T21:20:01.507Z,98836.36
2024-02-13T21:22:47.149Z,98840.61
2024-02-13T21:25:18.936Z,98843.88
2024-02-13T21:27:46.805Z,98850.66
2024-02-13T21:30:13.770Z,98844.52
2024-02-13T21:32:40.665Z,98843.73
2024-02-13T21:35:12.155Z,98845.42
2024-02-13T21:37:40.605Z,98847.20
2024-02-13T21:40:15.341Z,98848.10
2024-02-13T21:42:42.948Z,98847.45
2024-02-13T21:45:10.320Z,98846.14
2024-02-13T21:47:42.593Z,98849.29
2024-02-13T21:50:10.671Z,98854.19
2024-02-13T21:52:38.107Z,98854.39
2024-02-13T21:55:06.466Z,98856.42
2024-02-13T21:57:33.468Z,98858.54
2024-02-13T22:00:04.628Z,98857.56
2024-02-13T22:02:31.708Z,98859.93
2024-02-13T22:04:58.470Z,98864.13
2024-02-13T22:07:25.291Z,98863.63
2024-02-13T22:09:52.072Z,98867.46
2024-02-13T22:12:18.829Z,98865.55
2024-02-13T22:14:45.613Z,98865.67
2024-02-13T22:17:12.343Z,98864.98
2024-02-13T22:19:39.195Z,98864.73
2024-02-13T22:22:06.312Z,98868.15
2024-02-13T22:24:33.652Z,98864.55
2024-02-13T22:27:00.456Z,98864.57
2024-02-13T22:29:27.296Z,98867.65
2024-02-13T22:31:53.982Z,98869.95
2024-02-13T22:34:24.772Z,98873.64
2024-02-13T22:36:53.720Z,98876.82
2024-02-13T22:39:20.418Z,98877.27
2024-02-13T22:41:47.166Z,98876.44
2024-02-13T22:44:14.423Z,98875.39
2024-02-13T22:46:42.217Z,98876.34
2024-02-13T22:49:09.127Z,98876.05
2024-02-13T22:51:36.069Z,98877.58
2024-02-13T22:54:02.895Z,98879.69
2024-02-13T22:56:29.689Z,98887.66
2024-02-13T22:58:56.710Z,98886.66
2024-02-13T23:01:25.261Z,98887.85
2024-02-13T23:03:52.363Z,98881.98
2024-02-13T23:06:20.658Z,98883.63
2024-02-13T23:08:47.612Z,98882.25
2024-02-13T23:11:14.510Z,98879.02
2024-02-13T23:13:45.718Z,98879.27
2024-02-13T23:16:16.210Z,98879.07
2024-02-13T23:18:43.210Z,98883.14
2024-02-13T23:21:10.424Z,98887.36
2024-02-13T23:23:37.217Z,98887.30
2024-02-13T23:26:04.162Z,98891.45
2024-02-13T23:28:38.874Z,98890.89
2024-02-13T23:31:13.308Z,98892.95
2024-02-13T23:33:40.609Z,98891.65
2024-02-13T23:36:10.356Z,98887.62
2024-02-13T23:38:37.366Z,98884.34
2024-02-13T23:41:05.220Z,98885.88
2024-02-13T23:43:31.979Z,98883.28
2024-02-13T23:45:58.774Z,98885.02
2024-02-13T23:48:25.684Z,98894.55
2024-02-13T23:50:52.625Z,98889.66
2024-02-13T23:53:19.469Z,98889.96
2024-02-13T23:55:48.644Z,98888.42
2024-02-13T23:58:17.583Z,98887.45
